3O8 weather

Harris Ranch Airport
Coalinga, California, United States

Public forecast

Using degrees Fahrenheit for public forecast. Weather courtesy of forecast.io.

Closest aviation weather report (METAR) to Harris Ranch Airport

Closest report is Lemoore Naval Air Station (Reeves Field) Airport, 14.8 nm (27.3 km) ENE. Retrieved 2020/04/08 23:56 UTC (48 minutes ago):

KNLC 082356Z 14011KT 10SM FEW035 BKN075 BKN110 17/09 A2993 RMK AO2 SLP136 RH/60 T01670089 10172 20133 58013

Closest aviation forecast (TAF) to Harris Ranch Airport

Forecast is more than 12 hours old.

Closest forecast is Lemoore Naval Air Station (Reeves Field) Airport, 14.8 nm (27.3 km) ENE. Retrieved 2016/08/04 23:21 UTC (4 years ago):

TAF KNLC 032300Z 0323/0423 35010KT 9999 FEW180 QNH2980INS TEMPO 0323/0405 03008KT FM040500 30005KT 9999 SKC QNH2986INS TX19/0413Z TN39/0423Z FS30067